sensor_id;sensor_type;location;lat;lon;timestamp;P1;durP1;ratioP1;P2;durP2;ratioP2
27333;SDS011;14817;57.104;-2.094;2023-05-07T00:02:08;111.03;;;10.43;;
27333;SDS011;14817;57.104;-2.094;2023-05-07T00:04:35;105.25;;;10.88;;
27333;SDS011;14817;57.104;-2.094;2023-05-07T00:07:04;154.85;;;14.30;;
27333;SDS011;14817;57.104;-2.094;2023-05-07T00:09:30;153.82;;;12.68;;
27333;SDS011;14817;57.104;-2.094;2023-05-07T00:11:57;209.05;;;17.05;;
27333;SDS011;14817;57.104;-2.094;2023-05-07T00:14:24;132.10;;;11.45;;
27333;SDS011;14817;57.104;-2.094;2023-05-07T00:16:51;192.85;;;14.82;;
27333;SDS011;14817;57.104;-2.094;2023-05-07T00:19:18;108.85;;;10.35;;
27333;SDS011;14817;57.104;-2.094;2023-05-07T00:21:45;164.85;;;13.68;;
27333;SDS011;14817;57.104;-2.094;2023-05-07T00:24:11;209.38;;;18.02;;
27333;SDS011;14817;57.104;-2.094;2023-05-07T00:26:38;378.58;;;33.60;;
27333;SDS011;14817;57.104;-2.094;2023-05-07T00:29:05;168.27;;;14.63;;
27333;SDS011;14817;57.104;-2.094;2023-05-07T00:31:32;154.45;;;12.68;;
27333;SDS011;14817;57.104;-2.094;2023-05-07T00:33:59;131.48;;;11.02;;
27333;SDS011;14817;57.104;-2.094;2023-05-07T00:36:26;129.43;;;13.02;;
27333;SDS011;14817;57.104;-2.094;2023-05-07T00:38:53;218.07;;;16.88;;
27333;SDS011;14817;57.104;-2.094;2023-05-07T00:41:21;122.45;;;12.35;;
27333;SDS011;14817;57.104;-2.094;2023-05-07T00:43:48;304.23;;;23.27;;
27333;SDS011;14817;57.104;-2.094;2023-05-07T00:46:19;222.85;;;20.40;;
27333;SDS011;14817;57.104;-2.094;2023-05-07T00:48:47;281.00;;;22.40;;
27333;SDS011;14817;57.104;-2.094;2023-05-07T00:51:14;199.38;;;17.92;;
27333;SDS011;14817;57.104;-2.094;2023-05-07T00:53:41;157.70;;;11.88;;
27333;SDS011;14817;57.104;-2.094;2023-05-07T00:56:08;203.40;;;18.15;;
27333;SDS011;14817;57.104;-2.094;2023-05-07T00:58:36;370.98;;;31.48;;
27333;SDS011;14817;57.104;-2.094;2023-05-07T01:01:03;312.27;;;26.45;;
27333;SDS011;14817;57.104;-2.094;2023-05-07T01:03:30;148.68;;;13.98;;
27333;SDS011;14817;57.104;-2.094;2023-05-07T01:05:57;282.60;;;25.42;;
27333;SDS011;14817;57.104;-2.094;2023-05-07T01:08:27;123.72;;;11.80;;
27333;SDS011;14817;57.104;-2.094;2023-05-07T01:10:56;154.48;;;13.65;;
27333;SDS011;14817;57.104;-2.094;2023-05-07T01:13:23;129.30;;;12.32;;
27333;SDS011;14817;57.104;-2.094;2023-05-07T01:15:52;226.50;;;19.00;;
27333;SDS011;14817;57.104;-2.094;2023-05-07T01:18:19;118.82;;;12.15;;
27333;SDS011;14817;57.104;-2.094;2023-05-07T01:20:46;128.60;;;13.13;;
27333;SDS011;14817;57.104;-2.094;2023-05-07T01:23:13;114.45;;;11.82;;
27333;SDS011;14817;57.104;-2.094;2023-05-07T01:25:41;93.22;;;10.73;;
27333;SDS011;14817;57.104;-2.094;2023-05-07T01:28:09;176.73;;;14.32;;
27333;SDS011;14817;57.104;-2.094;2023-05-07T01:30:38;138.43;;;12.82;;
27333;SDS011;14817;57.104;-2.094;2023-05-07T01:33:13;102.70;;;9.75;;
27333;SDS011;14817;57.104;-2.094;2023-05-07T01:35:43;60.33;;;6.50;;
27333;SDS011;14817;57.104;-2.094;2023-05-07T01:38:12;66.63;;;7.77;;
27333;SDS011;14817;57.104;-2.094;2023-05-07T01:40:39;83.30;;;9.43;;
27333;SDS011;14817;57.104;-2.094;2023-05-07T01:43:07;110.00;;;10.82;;
27333;SDS011;14817;57.104;-2.094;2023-05-07T01:45:35;67.15;;;6.55;;
27333;SDS011;14817;57.104;-2.094;2023-05-07T01:48:02;59.75;;;6.60;;
27333;SDS011;14817;57.104;-2.094;2023-05-07T01:50:30;96.22;;;9.07;;
27333;SDS011;14817;57.104;-2.094;2023-05-07T01:52:58;43.47;;;5.05;;
27333;SDS011;14817;57.104;-2.094;2023-05-07T01:55:25;65.88;;;6.30;;
27333;SDS011;14817;57.104;-2.094;2023-05-07T01:57:52;37.58;;;5.32;;
27333;SDS011;14817;57.104;-2.094;2023-05-07T02:00:19;68.97;;;6.35;;
27333;SDS011;14817;57.104;-2.094;2023-05-07T02:02:46;72.00;;;6.18;;
27333;SDS011;14817;57.104;-2.094;2023-05-07T02:05:26;71.20;;;7.25;;
27333;SDS011;14817;57.104;-2.094;2023-05-07T02:08:01;53.75;;;5.80;;
27333;SDS011;14817;57.104;-2.094;2023-05-07T02:10:30;83.88;;;7.90;;
27333;SDS011;14817;57.104;-2.094;2023-05-07T02:12:58;36.25;;;4.53;;
27333;SDS011;14817;57.104;-2.094;2023-05-07T02:15:26;52.92;;;5.28;;
27333;SDS011;14817;57.104;-2.094;2023-05-07T02:17:58;38.58;;;4.85;;
27333;SDS011;14817;57.104;-2.094;2023-05-07T02:20:29;79.43;;;6.75;;
27333;SDS011;14817;57.104;-2.094;2023-05-07T02:22:56;34.65;;;4.43;;
27333;SDS011;14817;57.104;-2.094;2023-05-07T02:25:25;78.85;;;6.93;;
27333;SDS011;14817;57.104;-2.094;2023-05-07T02:27:52;102.80;;;9.38;;
27333;SDS011;14817;57.104;-2.094;2023-05-07T02:30:23;75.18;;;10.40;;
27333;SDS011;14817;57.104;-2.094;2023-05-07T02:32:53;156.73;;;14.07;;
27333;SDS011;14817;57.104;-2.094;2023-05-07T02:35:20;86.80;;;8.48;;
27333;SDS011;14817;57.104;-2.094;2023-05-07T02:37:47;57.97;;;6.40;;
27333;SDS011;14817;57.104;-2.094;2023-05-07T02:40:14;168.60;;;15.32;;
27333;SDS011;14817;57.104;-2.094;2023-05-07T02:42:40;56.72;;;6.60;;
27333;SDS011;14817;57.104;-2.094;2023-05-07T02:45:07;55.55;;;5.95;;
27333;SDS011;14817;57.104;-2.094;2023-05-07T02:47:35;73.13;;;7.32;;
27333;SDS011;14817;57.104;-2.094;2023-05-07T02:50:03;47.92;;;6.25;;
27333;SDS011;14817;57.104;-2.094;2023-05-07T02:52:30;89.38;;;8.80;;
27333;SDS011;14817;57.104;-2.094;2023-05-07T02:54:57;93.25;;;9.63;;
27333;SDS011;14817;57.104;-2.094;2023-05-07T02:57:24;64.28;;;6.72;;
27333;SDS011;14817;57.104;-2.094;2023-05-07T02:59:51;98.38;;;8.77;;
27333;SDS011;14817;57.104;-2.094;2023-05-07T03:02:20;68.50;;;8.18;;
27333;SDS011;14817;57.104;-2.094;2023-05-07T03:04:46;150.05;;;11.25;;
27333;SDS011;14817;57.104;-2.094;2023-05-07T03:07:13;70.68;;;6.88;;
27333;SDS011;14817;57.104;-2.094;2023-05-07T03:09:40;83.15;;;8.20;;
27333;SDS011;14817;57.104;-2.094;2023-05-07T03:12:07;48.65;;;6.15;;
27333;SDS011;14817;57.104;-2.094;2023-05-07T03:14:34;169.32;;;14.40;;
27333;SDS011;14817;57.104;-2.094;2023-05-07T03:17:01;73.80;;;7.95;;
27333;SDS011;14817;57.104;-2.094;2023-05-07T03:19:28;103.20;;;9.80;;
27333;SDS011;14817;57.104;-2.094;2023-05-07T03:21:57;107.03;;;9.68;;
27333;SDS011;14817;57.104;-2.094;2023-05-07T03:24:24;72.95;;;7.28;;
27333;SDS011;14817;57.104;-2.094;2023-05-07T03:26:51;113.13;;;9.85;;
27333;SDS011;14817;57.104;-2.094;2023-05-07T03:29:18;103.68;;;8.55;;
27333;SDS011;14817;57.104;-2.094;2023-05-07T03:31:46;193.80;;;16.88;;
27333;SDS011;14817;57.104;-2.094;2023-05-07T03:34:13;110.18;;;11.27;;
27333;SDS011;14817;57.104;-2.094;2023-05-07T03:36:40;152.07;;;13.70;;
27333;SDS011;14817;57.104;-2.094;2023-05-07T03:39:10;156.23;;;13.98;;
27333;SDS011;14817;57.104;-2.094;2023-05-07T03:41:39;287.17;;;22.23;;
27333;SDS011;14817;57.104;-2.094;2023-05-07T03:44:06;204.13;;;19.58;;
27333;SDS011;14817;57.104;-2.094;2023-05-07T03:46:33;111.38;;;12.32;;
27333;SDS011;14817;57.104;-2.094;2023-05-07T03:49:01;308.75;;;26.67;;
27333;SDS011;14817;57.104;-2.094;2023-05-07T03:51:30;233.38;;;21.35;;
27333;SDS011;14817;57.104;-2.094;2023-05-07T03:53:57;302.58;;;24.75;;
27333;SDS011;14817;57.104;-2.094;2023-05-07T03:56:26;254.25;;;23.45;;
27333;SDS011;14817;57.104;-2.094;2023-05-07T03:58:56;343.67;;;27.20;;
27333;SDS011;14817;57.104;-2.094;2023-05-07T04:01:22;193.25;;;16.15;;
27333;SDS011;14817;57.104;-2.094;2023-05-07T04:03:50;249.82;;;21.50;;
27333;SDS011;14817;57.104;-2.094;2023-05-07T04:06:17;230.15;;;21.50;;
27333;SDS011;14817;57.104;-2.094;2023-05-07T04:08:46;227.77;;;23.33;;
27333;SDS011;14817;57.104;-2.094;2023-05-07T04:11:13;200.65;;;19.75;;
27333;SDS011;14817;57.104;-2.094;2023-05-07T04:13:40;237.10;;;18.60;;
27333;SDS011;14817;57.104;-2.094;2023-05-07T04:16:08;174.98;;;16.85;;
27333;SDS011;14817;57.104;-2.094;2023-05-07T04:18:36;125.43;;;13.25;;
27333;SDS011;14817;57.104;-2.094;2023-05-07T04:21:04;173.63;;;17.77;;
27333;SDS011;14817;57.104;-2.094;2023-05-07T04:23:33;135.65;;;14.52;;
27333;SDS011;14817;57.104;-2.094;2023-05-07T04:26:03;166.95;;;15.27;;
27333;SDS011;14817;57.104;-2.094;2023-05-07T04:28:38;187.63;;;17.38;;
27333;SDS011;14817;57.104;-2.094;2023-05-07T04:31:06;109.28;;;13.00;;
27333;SDS011;14817;57.104;-2.094;2023-05-07T04:33:35;228.23;;;19.73;;
27333;SDS011;14817;57.104;-2.094;2023-05-07T04:36:03;221.35;;;19.15;;
27333;SDS011;14817;57.104;-2.094;2023-05-07T04:38:35;166.10;;;17.45;;
27333;SDS011;14817;57.104;-2.094;2023-05-07T04:41:03;94.60;;;10.00;;
27333;SDS011;14817;57.104;-2.094;2023-05-07T04:43:34;282.67;;;24.50;;
27333;SDS011;14817;57.104;-2.094;2023-05-07T04:46:01;172.88;;;15.40;;
27333;SDS011;14817;57.104;-2.094;2023-05-07T04:48:29;171.45;;;14.50;;
27333;SDS011;14817;57.104;-2.094;2023-05-07T04:50:57;131.10;;;12.10;;
27333;SDS011;14817;57.104;-2.094;2023-05-07T04:53:24;171.23;;;14.38;;
27333;SDS011;14817;57.104;-2.094;2023-05-07T04:55:56;108.28;;;10.90;;
27333;SDS011;14817;57.104;-2.094;2023-05-07T04:58:29;146.85;;;12.23;;
27333;SDS011;14817;57.104;-2.094;2023-05-07T05:00:58;148.07;;;11.52;;
27333;SDS011;14817;57.104;-2.094;2023-05-07T05:03:27;84.40;;;8.48;;
27333;SDS011;14817;57.104;-2.094;2023-05-07T05:05:54;123.97;;;12.50;;
27333;SDS011;14817;57.104;-2.094;2023-05-07T05:08:22;126.13;;;10.45;;
27333;SDS011;14817;57.104;-2.094;2023-05-07T05:10:49;142.05;;;11.38;;
27333;SDS011;14817;57.104;-2.094;2023-05-07T05:13:16;194.50;;;15.77;;
27333;SDS011;14817;57.104;-2.094;2023-05-07T05:15:44;279.63;;;22.27;;
27333;SDS011;14817;57.104;-2.094;2023-05-07T05:18:12;148.90;;;11.18;;
27333;SDS011;14817;57.104;-2.094;2023-05-07T05:20:39;247.88;;;17.63;;
27333;SDS011;14817;57.104;-2.094;2023-05-07T05:23:07;115.88;;;10.75;;
27333;SDS011;14817;57.104;-2.094;2023-05-07T05:25:35;110.68;;;10.07;;
27333;SDS011;14817;57.104;-2.094;2023-05-07T05:28:02;100.60;;;10.73;;
27333;SDS011;14817;57.104;-2.094;2023-05-07T05:30:30;124.18;;;11.98;;
27333;SDS011;14817;57.104;-2.094;2023-05-07T05:32:57;122.57;;;10.70;;
27333;SDS011;14817;57.104;-2.094;2023-05-07T05:35:26;142.85;;;12.88;;
27333;SDS011;14817;57.104;-2.094;2023-05-07T05:37:53;116.70;;;10.38;;
27333;SDS011;14817;57.104;-2.094;2023-05-07T05:40:21;85.78;;;9.57;;
27333;SDS011;14817;57.104;-2.094;2023-05-07T05:42:48;197.25;;;14.13;;
27333;SDS011;14817;57.104;-2.094;2023-05-07T05:45:16;186.60;;;13.30;;
27333;SDS011;14817;57.104;-2.094;2023-05-07T05:47:44;102.35;;;10.63;;
27333;SDS011;14817;57.104;-2.094;2023-05-07T05:50:11;85.05;;;9.82;;
27333;SDS011;14817;57.104;-2.094;2023-05-07T05:52:38;159.88;;;13.48;;
27333;SDS011;14817;57.104;-2.094;2023-05-07T05:55:07;107.15;;;9.88;;
27333;SDS011;14817;57.104;-2.094;2023-05-07T05:57:36;103.05;;;11.77;;
27333;SDS011;14817;57.104;-2.094;2023-05-07T06:00:03;173.77;;;14.73;;
27333;SDS011;14817;57.104;-2.094;2023-05-07T06:02:32;113.90;;;10.88;;
27333;SDS011;14817;57.104;-2.094;2023-05-07T06:04:59;118.80;;;11.48;;
27333;SDS011;14817;57.104;-2.094;2023-05-07T06:07:26;114.95;;;10.57;;
27333;SDS011;14817;57.104;-2.094;2023-05-07T06:09:54;118.82;;;11.00;;
27333;SDS011;14817;57.104;-2.094;2023-05-07T06:12:22;132.93;;;12.27;;
27333;SDS011;14817;57.104;-2.094;2023-05-07T06:14:49;218.90;;;17.35;;
27333;SDS011;14817;57.104;-2.094;2023-05-07T06:17:17;211.20;;;16.65;;
27333;SDS011;14817;57.104;-2.094;2023-05-07T06:19:48;160.70;;;12.43;;
27333;SDS011;14817;57.104;-2.094;2023-05-07T06:22:16;110.70;;;10.15;;
27333;SDS011;14817;57.104;-2.094;2023-05-07T06:24:43;137.48;;;14.52;;
27333;SDS011;14817;57.104;-2.094;2023-05-07T06:27:10;115.03;;;11.68;;
27333;SDS011;14817;57.104;-2.094;2023-05-07T06:29:38;153.43;;;16.00;;
27333;SDS011;14817;57.104;-2.094;2023-05-07T06:32:12;166.77;;;15.52;;
27333;SDS011;14817;57.104;-2.094;2023-05-07T06:34:42;151.70;;;13.73;;
27333;SDS011;14817;57.104;-2.094;2023-05-07T06:37:09;127.45;;;11.98;;
27333;SDS011;14817;57.104;-2.094;2023-05-07T06:39:47;134.02;;;11.30;;
27333;SDS011;14817;57.104;-2.094;2023-05-07T06:42:15;122.07;;;12.45;;
27333;SDS011;14817;57.104;-2.094;2023-05-07T06:44:46;137.00;;;11.63;;
27333;SDS011;14817;57.104;-2.094;2023-05-07T06:47:15;107.28;;;10.43;;
27333;SDS011;14817;57.104;-2.094;2023-05-07T06:49:45;200.05;;;16.98;;
27333;SDS011;14817;57.104;-2.094;2023-05-07T06:52:15;116.25;;;12.43;;
27333;SDS011;14817;57.104;-2.094;2023-05-07T06:54:43;201.02;;;16.48;;
27333;SDS011;14817;57.104;-2.094;2023-05-07T06:57:13;114.00;;;12.88;;
27333;SDS011;14817;57.104;-2.094;2023-05-07T06:59:40;167.32;;;15.20;;
27333;SDS011;14817;57.104;-2.094;2023-05-07T07:02:07;254.63;;;19.08;;
27333;SDS011;14817;57.104;-2.094;2023-05-07T07:04:35;151.27;;;14.05;;
27333;SDS011;14817;57.104;-2.094;2023-05-07T07:07:06;128.98;;;11.93;;
27333;SDS011;14817;57.104;-2.094;2023-05-07T07:09:34;116.63;;;12.57;;
27333;SDS011;14817;57.104;-2.094;2023-05-07T07:12:02;205.23;;;16.65;;
27333;SDS011;14817;57.104;-2.094;2023-05-07T07:14:30;140.38;;;13.07;;
27333;SDS011;14817;57.104;-2.094;2023-05-07T07:16:57;139.32;;;13.73;;
27333;SDS011;14817;57.104;-2.094;2023-05-07T07:19:25;190.18;;;16.20;;
27333;SDS011;14817;57.104;-2.094;2023-05-07T07:21:54;150.93;;;14.35;;
27333;SDS011;14817;57.104;-2.094;2023-05-07T07:24:21;118.75;;;11.35;;
27333;SDS011;14817;57.104;-2.094;2023-05-07T07:26:52;90.97;;;9.13;;
27333;SDS011;14817;57.104;-2.094;2023-05-07T07:29:23;66.43;;;8.98;;
27333;SDS011;14817;57.104;-2.094;2023-05-07T07:31:52;69.20;;;7.82;;
27333;SDS011;14817;57.104;-2.094;2023-05-07T07:34:20;137.52;;;11.65;;
27333;SDS011;14817;57.104;-2.094;2023-05-07T07:36:48;150.50;;;12.63;;
27333;SDS011;14817;57.104;-2.094;2023-05-07T07:39:17;156.48;;;12.05;;
27333;SDS011;14817;57.104;-2.094;2023-05-07T07:41:45;183.82;;;13.60;;
27333;SDS011;14817;57.104;-2.094;2023-05-07T07:44:13;216.50;;;16.05;;
27333;SDS011;14817;57.104;-2.094;2023-05-07T07:46:45;169.85;;;13.55;;
27333;SDS011;14817;57.104;-2.094;2023-05-07T07:49:13;143.02;;;12.55;;
27333;SDS011;14817;57.104;-2.094;2023-05-07T07:51:42;182.13;;;16.70;;
27333;SDS011;14817;57.104;-2.094;2023-05-07T07:54:10;344.65;;;25.50;;
27333;SDS011;14817;57.104;-2.094;2023-05-07T07:56:37;227.85;;;19.65;;
27333;SDS011;14817;57.104;-2.094;2023-05-07T07:59:05;239.80;;;20.48;;
27333;SDS011;14817;57.104;-2.094;2023-05-07T08:01:34;283.73;;;23.00;;
27333;SDS011;14817;57.104;-2.094;2023-05-07T08:04:01;231.18;;;19.25;;
27333;SDS011;14817;57.104;-2.094;2023-05-07T08:06:32;177.95;;;16.73;;
27333;SDS011;14817;57.104;-2.094;2023-05-07T08:08:59;128.18;;;12.15;;
27333;SDS011;14817;57.104;-2.094;2023-05-07T08:11:26;117.80;;;11.40;;
27333;SDS011;14817;57.104;-2.094;2023-05-07T08:13:54;128.65;;;13.27;;
27333;SDS011;14817;57.104;-2.094;2023-05-07T08:16:21;183.48;;;16.20;;
27333;SDS011;14817;57.104;-2.094;2023-05-07T08:18:51;66.35;;;8.93;;
27333;SDS011;14817;57.104;-2.094;2023-05-07T08:21:18;194.88;;;14.50;;
27333;SDS011;14817;57.104;-2.094;2023-05-07T08:23:45;163.63;;;14.55;;
27333;SDS011;14817;57.104;-2.094;2023-05-07T08:26:12;127.95;;;12.55;;
27333;SDS011;14817;57.104;-2.094;2023-05-07T08:28:39;178.50;;;17.73;;
27333;SDS011;14817;57.104;-2.094;2023-05-07T08:31:07;263.65;;;24.05;;
27333;SDS011;14817;57.104;-2.094;2023-05-07T08:33:36;216.35;;;19.55;;
27333;SDS011;14817;57.104;-2.094;2023-05-07T08:36:05;110.25;;;16.10;;
27333;SDS011;14817;57.104;-2.094;2023-05-07T08:38:32;201.68;;;18.40;;
27333;SDS011;14817;57.104;-2.094;2023-05-07T08:41:00;190.73;;;15.82;;
27333;SDS011;14817;57.104;-2.094;2023-05-07T08:43:28;155.07;;;15.77;;
27333;SDS011;14817;57.104;-2.094;2023-05-07T08:46:00;132.95;;;13.43;;
27333;SDS011;14817;57.104;-2.094;2023-05-07T08:48:32;145.13;;;13.43;;
27333;SDS011;14817;57.104;-2.094;2023-05-07T08:51:19;158.75;;;14.45;;
27333;SDS011;14817;57.104;-2.094;2023-05-07T08:53:48;135.55;;;12.75;;
27333;SDS011;14817;57.104;-2.094;2023-05-07T08:56:22;99.68;;;11.15;;
27333;SDS011;14817;57.104;-2.094;2023-05-07T08:58:51;100.57;;;10.73;;
27333;SDS011;14817;57.104;-2.094;2023-05-07T09:01:18;94.07;;;11.63;;
27333;SDS011;14817;57.104;-2.094;2023-05-07T09:03:50;149.70;;;14.02;;
27333;SDS011;14817;57.104;-2.094;2023-05-07T09:06:19;214.50;;;18.00;;
27333;SDS011;14817;57.104;-2.094;2023-05-07T09:08:53;201.82;;;17.17;;
27333;SDS011;14817;57.104;-2.094;2023-05-07T09:11:23;139.77;;;14.30;;
27333;SDS011;14817;57.104;-2.094;2023-05-07T09:13:54;141.20;;;12.85;;
27333;SDS011;14817;57.104;-2.094;2023-05-07T09:16:24;119.82;;;14.00;;
27333;SDS011;14817;57.104;-2.094;2023-05-07T09:18:53;126.97;;;15.52;;
27333;SDS011;14817;57.104;-2.094;2023-05-07T09:21:21;93.40;;;13.63;;
27333;SDS011;14817;57.104;-2.094;2023-05-07T09:23:52;116.85;;;14.52;;
27333;SDS011;14817;57.104;-2.094;2023-05-07T09:26:23;109.57;;;14.55;;
27333;SDS011;14817;57.104;-2.094;2023-05-07T09:28:51;186.75;;;18.95;;
27333;SDS011;14817;57.104;-2.094;2023-05-07T09:31:19;115.13;;;14.55;;
27333;SDS011;14817;57.104;-2.094;2023-05-07T09:33:49;94.00;;;13.18;;
27333;SDS011;14817;57.104;-2.094;2023-05-07T09:36:17;145.30;;;15.18;;
27333;SDS011;14817;57.104;-2.094;2023-05-07T09:38:44;159.07;;;15.75;;
27333;SDS011;14817;57.104;-2.094;2023-05-07T09:41:12;200.63;;;19.00;;
27333;SDS011;14817;57.104;-2.094;2023-05-07T09:44:14;112.15;;;14.30;;
27333;SDS011;14817;57.104;-2.094;2023-05-07T09:46:47;131.82;;;14.95;;
27333;SDS011;14817;57.104;-2.094;2023-05-07T09:49:27;119.22;;;15.30;;
27333;SDS011;14817;57.104;-2.094;2023-05-07T09:52:01;100.47;;;14.13;;
27333;SDS011;14817;57.104;-2.094;2023-05-07T09:54:33;122.63;;;14.57;;
27333;SDS011;14817;57.104;-2.094;2023-05-07T09:57:01;86.22;;;14.77;;
27333;SDS011;14817;57.104;-2.094;2023-05-07T09:59:30;170.88;;;17.73;;
27333;SDS011;14817;57.104;-2.094;2023-05-07T10:02:01;90.75;;;14.63;;
27333;SDS011;14817;57.104;-2.094;2023-05-07T10:04:34;78.25;;;12.52;;
27333;SDS011;14817;57.104;-2.094;2023-05-07T10:07:02;109.93;;;14.55;;
27333;SDS011;14817;57.104;-2.094;2023-05-07T10:09:31;111.75;;;14.75;;
27333;SDS011;14817;57.104;-2.094;2023-05-07T10:11:59;63.50;;;14.38;;
27333;SDS011;14817;57.104;-2.094;2023-05-07T10:14:27;79.05;;;12.02;;
27333;SDS011;14817;57.104;-2.094;2023-05-07T10:16:55;78.47;;;12.75;;
27333;SDS011;14817;57.104;-2.094;2023-05-07T10:19:24;75.30;;;12.50;;
27333;SDS011;14817;57.104;-2.094;2023-05-07T10:21:55;40.28;;;10.15;;
27333;SDS011;14817;57.104;-2.094;2023-05-07T10:24:26;45.17;;;10.27;;
27333;SDS011;14817;57.104;-2.094;2023-05-07T10:26:56;34.83;;;8.23;;
27333;SDS011;14817;57.104;-2.094;2023-05-07T10:34:47;31.60;;;6.13;;
27333;SDS011;14817;57.104;-2.094;2023-05-07T10:37:17;27.00;;;6.28;;
27333;SDS011;14817;57.104;-2.094;2023-05-07T10:39:45;25.10;;;5.70;;
27333;SDS011;14817;57.104;-2.094;2023-05-07T10:42:13;20.02;;;5.32;;
27333;SDS011;14817;57.104;-2.094;2023-05-07T10:44:46;9.27;;;4.78;;
27333;SDS011;14817;57.104;-2.094;2023-05-07T10:47:20;12.23;;;4.80;;
27333;SDS011;14817;57.104;-2.094;2023-05-07T10:52:39;30.90;;;6.25;;
27333;SDS011;14817;57.104;-2.094;2023-05-07T10:57:56;27.33;;;5.82;;
27333;SDS011;14817;57.104;-2.094;2023-05-07T11:01:09;34.97;;;6.70;;
27333;SDS011;14817;57.104;-2.094;2023-05-07T11:04:23;23.27;;;6.38;;
27333;SDS011;14817;57.104;-2.094;2023-05-07T11:15:12;24.85;;;6.18;;
27333;SDS011;14817;57.104;-2.094;2023-05-07T11:17:52;18.15;;;5.95;;
27333;SDS011;14817;57.104;-2.094;2023-05-07T11:26:14;12.23;;;6.22;;
27333;SDS011;14817;57.104;-2.094;2023-05-07T11:28:43;16.17;;;6.22;;
27333;SDS011;14817;57.104;-2.094;2023-05-07T11:31:10;12.18;;;6.07;;
27333;SDS011;14817;57.104;-2.094;2023-05-07T11:33:39;11.68;;;5.93;;
27333;SDS011;14817;57.104;-2.094;2023-05-07T11:36:11;11.80;;;6.57;;
27333;SDS011;14817;57.104;-2.094;2023-05-07T11:38:44;15.95;;;6.38;;
27333;SDS011;14817;57.104;-2.094;2023-05-07T11:41:10;16.10;;;6.85;;
27333;SDS011;14817;57.104;-2.094;2023-05-07T11:43:40;14.00;;;7.40;;
27333;SDS011;14817;57.104;-2.094;2023-05-07T11:46:22;17.70;;;7.57;;
27333;SDS011;14817;57.104;-2.094;2023-05-07T11:48:49;18.35;;;7.78;;
27333;SDS011;14817;57.104;-2.094;2023-05-07T11:51:20;21.60;;;7.80;;
27333;SDS011;14817;57.104;-2.094;2023-05-07T11:53:48;16.75;;;7.40;;
27333;SDS011;14817;57.104;-2.094;2023-05-07T11:58:47;10.80;;;6.53;;
27333;SDS011;14817;57.104;-2.094;2023-05-07T12:01:15;11.57;;;6.65;;
27333;SDS011;14817;57.104;-2.094;2023-05-07T12:03:43;24.08;;;9.43;;
27333;SDS011;14817;57.104;-2.094;2023-05-07T12:06:16;42.70;;;10.55;;
27333;SDS011;14817;57.104;-2.094;2023-05-07T12:08:44;21.30;;;9.48;;
27333;SDS011;14817;57.104;-2.094;2023-05-07T12:11:22;24.58;;;10.60;;
27333;SDS011;14817;57.104;-2.094;2023-05-07T12:13:50;30.17;;;9.73;;
27333;SDS011;14817;57.104;-2.094;2023-05-07T12:16:18;37.55;;;9.65;;
27333;SDS011;14817;57.104;-2.094;2023-05-07T12:18:46;27.17;;;10.30;;
27333;SDS011;14817;57.104;-2.094;2023-05-07T12:21:13;38.60;;;10.05;;
27333;SDS011;14817;57.104;-2.094;2023-05-07T12:23:40;42.60;;;10.82;;
27333;SDS011;14817;57.104;-2.094;2023-05-07T12:26:07;28.05;;;10.15;;
27333;SDS011;14817;57.104;-2.094;2023-05-07T12:28:38;44.35;;;11.02;;
27333;SDS011;14817;57.104;-2.094;2023-05-07T12:31:05;23.98;;;10.40;;
27333;SDS011;14817;57.104;-2.094;2023-05-07T12:33:34;35.63;;;10.98;;
27333;SDS011;14817;57.104;-2.094;2023-05-07T12:36:02;43.97;;;11.63;;
27333;SDS011;14817;57.104;-2.094;2023-05-07T12:38:35;32.72;;;10.30;;
27333;SDS011;14817;57.104;-2.094;2023-05-07T12:41:03;30.02;;;11.38;;
27333;SDS011;14817;57.104;-2.094;2023-05-07T12:43:31;27.83;;;10.00;;
27333;SDS011;14817;57.104;-2.094;2023-05-07T12:45:59;40.55;;;10.88;;
27333;SDS011;14817;57.104;-2.094;2023-05-07T12:48:29;40.22;;;11.93;;
27333;SDS011;14817;57.104;-2.094;2023-05-07T12:50:56;31.67;;;10.60;;
27333;SDS011;14817;57.104;-2.094;2023-05-07T12:53:26;37.97;;;10.75;;
27333;SDS011;14817;57.104;-2.094;2023-05-07T12:55:57;74.57;;;13.80;;
27333;SDS011;14817;57.104;-2.094;2023-05-07T13:00:54;90.32;;;16.80;;
27333;SDS011;14817;57.104;-2.094;2023-05-07T13:05:57;57.65;;;12.60;;
27333;SDS011;14817;57.104;-2.094;2023-05-07T13:11:00;87.57;;;15.38;;
27333;SDS011;14817;57.104;-2.094;2023-05-07T13:13:31;48.33;;;11.68;;
27333;SDS011;14817;57.104;-2.094;2023-05-07T13:15:58;61.85;;;13.02;;
27333;SDS011;14817;57.104;-2.094;2023-05-07T13:18:27;45.35;;;13.18;;
27333;SDS011;14817;57.104;-2.094;2023-05-07T13:20:56;41.22;;;10.40;;
27333;SDS011;14817;57.104;-2.094;2023-05-07T13:23:23;34.90;;;10.90;;
27333;SDS011;14817;57.104;-2.094;2023-05-07T13:25:50;23.38;;;9.15;;
27333;SDS011;14817;57.104;-2.094;2023-05-07T13:28:16;24.70;;;8.63;;
27333;SDS011;14817;57.104;-2.094;2023-05-07T13:30:43;15.85;;;6.82;;
27333;SDS011;14817;57.104;-2.094;2023-05-07T13:33:10;14.13;;;7.18;;
27333;SDS011;14817;57.104;-2.094;2023-05-07T13:35:37;9.60;;;5.28;;
27333;SDS011;14817;57.104;-2.094;2023-05-07T13:38:04;12.90;;;6.68;;
27333;SDS011;14817;57.104;-2.094;2023-05-07T13:40:31;10.98;;;5.57;;
27333;SDS011;14817;57.104;-2.094;2023-05-07T13:42:58;13.20;;;5.30;;
27333;SDS011;14817;57.104;-2.094;2023-05-07T13:45:27;14.05;;;5.53;;
27333;SDS011;14817;57.104;-2.094;2023-05-07T13:47:56;23.05;;;7.38;;
27333;SDS011;14817;57.104;-2.094;2023-05-07T13:50:23;18.83;;;5.75;;
27333;SDS011;14817;57.104;-2.094;2023-05-07T13:52:50;12.45;;;6.60;;
27333;SDS011;14817;57.104;-2.094;2023-05-07T13:55:20;10.57;;;5.80;;
27333;SDS011;14817;57.104;-2.094;2023-05-07T13:57:54;11.48;;;5.63;;
27333;SDS011;14817;57.104;-2.094;2023-05-07T14:00:27;11.68;;;5.32;;
27333;SDS011;14817;57.104;-2.094;2023-05-07T14:02:55;11.10;;;4.88;;
27333;SDS011;14817;57.104;-2.094;2023-05-07T14:05:22;8.68;;;4.80;;
27333;SDS011;14817;57.104;-2.094;2023-05-07T14:07:50;12.10;;;5.60;;
27333;SDS011;14817;57.104;-2.094;2023-05-07T14:10:18;8.10;;;5.03;;
27333;SDS011;14817;57.104;-2.094;2023-05-07T14:12:47;8.35;;;4.65;;
27333;SDS011;14817;57.104;-2.094;2023-05-07T14:15:15;9.25;;;4.35;;
27333;SDS011;14817;57.104;-2.094;2023-05-07T14:17:42;7.97;;;4.45;;
27333;SDS011;14817;57.104;-2.094;2023-05-07T14:20:10;7.88;;;4.78;;
27333;SDS011;14817;57.104;-2.094;2023-05-07T14:22:40;11.63;;;6.03;;
27333;SDS011;14817;57.104;-2.094;2023-05-07T14:25:08;12.43;;;6.28;;
27333;SDS011;14817;57.104;-2.094;2023-05-07T14:27:36;15.18;;;6.20;;
27333;SDS011;14817;57.104;-2.094;2023-05-07T14:30:03;12.68;;;7.40;;
27333;SDS011;14817;57.104;-2.094;2023-05-07T14:32:30;13.07;;;6.88;;
27333;SDS011;14817;57.104;-2.094;2023-05-07T14:34:57;38.72;;;8.15;;
27333;SDS011;14817;57.104;-2.094;2023-05-07T14:37:23;66.38;;;11.25;;
27333;SDS011;14817;57.104;-2.094;2023-05-07T14:39:50;15.25;;;7.88;;
27333;SDS011;14817;57.104;-2.094;2023-05-07T14:42:17;42.92;;;9.93;;
27333;SDS011;14817;57.104;-2.094;2023-05-07T14:44:45;27.77;;;9.55;;
27333;SDS011;14817;57.104;-2.094;2023-05-07T14:47:14;111.40;;;15.77;;
27333;SDS011;14817;57.104;-2.094;2023-05-07T14:49:44;66.63;;;11.35;;
27333;SDS011;14817;57.104;-2.094;2023-05-07T14:52:11;86.57;;;13.55;;